createdAt,value
2024-01-22T00:01:46.860Z,3.90
2024-01-22T00:04:15.097Z,7.45
2024-01-22T00:06:43.188Z,6.53
2024-01-22T00:09:10.858Z,5.35
2024-01-22T00:11:38.526Z,7.35
2024-01-22T00:14:06.308Z,6.78
2024-01-22T00:16:38.796Z,5.35
2024-01-22T00:19:08.240Z,4.53
2024-01-22T00:21:35.865Z,5.68
2024-01-22T00:24:04.568Z,4.95
2024-01-22T00:26:32.236Z,3.67
2024-01-22T00:28:59.871Z,4.30
2024-01-22T00:31:27.485Z,4.47
2024-01-22T00:33:55.694Z,4.82
2024-01-22T00:36:23.384Z,7.05
2024-01-22T00:38:52.018Z,12.65
2024-01-22T00:41:19.604Z,3.88
2024-01-22T00:43:47.209Z,5.40
2024-01-22T00:46:14.866Z,4.07
2024-01-22T00:48:42.624Z,4.05
2024-01-22T00:51:11.516Z,5.20
2024-01-22T00:53:39.334Z,6.90
2024-01-22T00:56:10.090Z,4.40
2024-01-22T00:58:38.233Z,4.50
2024-01-22T01:01:07.090Z,5.18
2024-01-22T01:03:35.572Z,6.57
2024-01-22T01:06:03.357Z,5.15
2024-01-22T01:08:31.362Z,3.78
2024-01-22T01:10:59.030Z,3.25
2024-01-22T01:13:26.810Z,4.20
2024-01-22T01:15:54.426Z,3.83
2024-01-22T01:18:22.258Z,6.20
2024-01-22T01:20:49.897Z,4.75
2024-01-22T01:23:17.548Z,5.25
2024-01-22T01:25:45.530Z,5.82
2024-01-22T01:28:13.507Z,6.75
2024-01-22T01:30:41.084Z,9.85
2024-01-22T01:33:08.816Z,3.65
2024-01-22T01:35:36.623Z,5.10
2024-01-22T01:38:05.392Z,3.88
2024-01-22T01:40:32.907Z,10.10
2024-01-22T01:43:00.503Z,3.95
2024-01-22T01:45:28.081Z,2.95
2024-01-22T01:47:56.236Z,3.45
2024-01-22T01:50:24.230Z,4.13
2024-01-22T01:52:53.561Z,4.45
2024-01-22T01:55:23.333Z,3.25
2024-01-22T01:57:57.540Z,6.75
2024-01-22T02:00:29.720Z,4.57
2024-01-22T02:02:57.492Z,4.57
2024-01-22T02:05:25.176Z,5.57
2024-01-22T02:07:52.806Z,3.95
2024-01-22T02:10:20.413Z,4.95
2024-01-22T02:12:49.112Z,3.83
2024-01-22T02:15:16.998Z,3.40
2024-01-22T02:17:44.950Z,2.65
2024-01-22T02:20:12.765Z,2.58
2024-01-22T02:22:40.386Z,4.25
2024-01-22T02:25:08.279Z,4.28
2024-01-22T02:27:35.830Z,4.60
2024-01-22T02:30:03.739Z,3.38
2024-01-22T02:32:31.407Z,3.90
2024-01-22T02:34:59.081Z,3.17
2024-01-22T02:37:26.616Z,2.90
2024-01-22T02:39:55.279Z,4.28
2024-01-22T02:42:22.960Z,3.00
2024-01-22T02:44:50.824Z,4.20
2024-01-22T02:47:18.507Z,3.60
2024-01-22T02:49:46.144Z,3.50
2024-01-22T02:52:13.833Z,3.85
2024-01-22T02:54:41.608Z,2.33
2024-01-22T02:57:11.302Z,5.35
2024-01-22T02:59:42.119Z,1.73
2024-01-22T03:02:10.763Z,2.70
2024-01-22T03:04:38.398Z,4.22
2024-01-22T03:07:07.196Z,3.22
2024-01-22T03:09:34.697Z,5.47
2024-01-22T03:12:02.616Z,2.97
2024-01-22T03:14:30.266Z,3.05
2024-01-22T03:16:57.855Z,2.97
2024-01-22T03:19:25.494Z,4.60
2024-01-22T03:21:53.111Z,2.90
2024-01-22T03:24:23.059Z,3.08
2024-01-22T03:26:50.997Z,2.60
2024-01-22T03:29:18.657Z,3.97
2024-01-22T03:31:46.338Z,2.83
2024-01-22T03:34:14.016Z,2.67
2024-01-22T03:36:41.684Z,3.05
2024-01-22T03:39:12.593Z,2.50
2024-01-22T03:41:41.410Z,5.20
2024-01-22T03:44:09.129Z,3.10
2024-01-22T03:46:36.906Z,4.07
2024-01-22T03:49:04.604Z,3.25
2024-01-22T03:51:32.429Z,3.03
2024-01-22T03:54:00.119Z,5.22
2024-01-22T03:56:27.746Z,2.15
2024-01-22T03:58:55.465Z,3.97
2024-01-22T04:01:23.252Z,4.13
2024-01-22T04:03:55.090Z,3.50
2024-01-22T04:06:22.964Z,2.80
2024-01-22T04:08:50.675Z,3.25
2024-01-22T04:11:19.072Z,1.98
2024-01-22T04:13:47.935Z,4.00
2024-01-22T04:16:15.961Z,4.25
2024-01-22T04:18:44.610Z,3.60
2024-01-22T04:21:13.467Z,1.70
2024-01-22T04:23:41.149Z,3.35
2024-01-22T04:26:08.684Z,2.03
2024-01-22T04:28:36.290Z,2.40
2024-01-22T04:31:04.014Z,2.22
2024-01-22T04:33:31.907Z,4.15
2024-01-22T04:35:59.815Z,2.53
2024-01-22T04:38:27.549Z,4.93
2024-01-22T04:40:55.174Z,2.50
2024-01-22T04:43:24.575Z,3.15
2024-01-22T04:45:52.211Z,3.25
2024-01-22T04:48:20.309Z,1.83
2024-01-22T04:50:47.986Z,4.35
2024-01-22T04:53:15.636Z,1.55
2024-01-22T04:55:43.322Z,3.28
2024-01-22T04:58:11.080Z,2.83
2024-01-22T05:00:39.565Z,2.40
2024-01-22T05:03:07.659Z,1.65
2024-01-22T05:05:36.453Z,2.53
2024-01-22T05:08:04.753Z,4.25
2024-01-22T05:10:32.408Z,5.07
2024-01-22T05:13:00.066Z,3.95
2024-01-22T05:15:27.817Z,2.13
2024-01-22T05:17:55.617Z,1.90
2024-01-22T05:20:23.281Z,2.53
2024-01-22T05:22:50.906Z,1.83
2024-01-22T05:25:19.609Z,3.17
2024-01-22T05:27:49.031Z,3.28
2024-01-22T05:30:16.896Z,2.85
2024-01-22T05:32:44.736Z,2.03
2024-01-22T05:35:14.619Z,2.17
2024-01-22T05:37:42.332Z,1.90
2024-01-22T05:40:14.979Z,2.47
2024-01-22T05:42:44.388Z,3.38
2024-01-22T05:45:13.629Z,1.42
2024-01-22T05:47:41.462Z,1.63
2024-01-22T05:50:11.161Z,3.75
2024-01-22T05:52:39.104Z,3.15
2024-01-22T05:55:07.229Z,1.48
2024-01-22T05:57:34.922Z,2.72
2024-01-22T06:00:10.745Z,2.42
2024-01-22T06:02:44.365Z,3.22
2024-01-22T06:07:42.198Z,1.50
2024-01-22T06:10:10.175Z,1.45
2024-01-22T06:12:37.922Z,2.22
2024-01-22T06:15:06.363Z,3.10
2024-01-22T06:17:34.590Z,3.72
2024-01-22T06:20:04.344Z,2.75
2024-01-22T06:22:34.083Z,3.70
2024-01-22T06:25:01.697Z,1.58
2024-01-22T06:27:29.376Z,4.07
2024-01-22T06:30:00.694Z,2.67
2024-01-22T06:32:30.706Z,1.83
2024-01-22T06:34:58.837Z,2.08
2024-01-22T06:37:26.380Z,3.17
2024-01-22T06:39:54.211Z,1.77
2024-01-22T06:42:27.858Z,2.13
2024-01-22T06:45:04.325Z,2.17
2024-01-22T06:47:32.081Z,2.33
2024-01-22T06:49:59.612Z,1.98
2024-01-22T06:52:27.237Z,2.03
2024-01-22T06:54:56.607Z,2.55
2024-01-22T06:57:24.239Z,3.25
2024-01-22T06:59:56.062Z,1.55
2024-01-22T07:02:28.540Z,2.33
2024-01-22T07:07:27.312Z,1.98
2024-01-22T07:09:55.087Z,2.05
2024-01-22T07:12:22.777Z,1.80
2024-01-22T07:15:14.564Z,3.63
2024-01-22T07:17:43.252Z,1.80
2024-01-22T07:20:16.153Z,2.13
2024-01-22T07:22:48.360Z,2.75
2024-01-22T07:25:17.788Z,3.33
2024-01-22T07:27:46.579Z,4.22
2024-01-22T07:30:15.002Z,1.92
2024-01-22T07:32:44.418Z,1.77
2024-01-22T07:35:15.290Z,4.75
2024-01-22T07:37:48.558Z,3.75
2024-01-22T07:40:16.242Z,4.95
2024-01-22T07:42:44.683Z,3.55
2024-01-22T07:45:12.848Z,2.30
2024-01-22T07:47:41.014Z,4.55
2024-01-22T07:50:12.279Z,7.97
2024-01-22T07:52:40.519Z,5.28
2024-01-22T07:55:09.941Z,6.72
2024-01-22T07:57:37.417Z,8.85
2024-01-22T08:00:12.630Z,6.40
2024-01-22T08:02:40.831Z,5.80
2024-01-22T08:05:09.108Z,8.25
2024-01-22T08:07:36.604Z,6.75
2024-01-22T08:10:05.030Z,8.13
2024-01-22T08:12:32.573Z,9.38
2024-01-22T08:15:00.142Z,11.32
2024-01-22T08:17:27.895Z,4.65
2024-01-22T08:19:55.607Z,8.65
2024-01-22T08:22:23.182Z,11.68
2024-01-22T08:24:50.741Z,10.25
2024-01-22T08:27:18.308Z,11.65
2024-01-22T08:29:46.052Z,9.48
2024-01-22T08:32:13.936Z,13.82
2024-01-22T08:34:41.663Z,9.73
2024-01-22T08:37:10.709Z,15.95
2024-01-22T08:39:38.505Z,12.25
2024-01-22T08:42:06.471Z,14.60
2024-01-22T08:44:34.245Z,14.02
2024-01-22T08:47:01.812Z,14.27
2024-01-22T08:49:32.203Z,10.23
2024-01-22T08:52:00.513Z,15.88
2024-01-22T08:54:28.606Z,13.98
2024-01-22T08:56:57.062Z,9.57
2024-01-22T08:59:24.620Z,9.93
2024-01-22T09:01:52.092Z,12.27
2024-01-22T09:04:20.387Z,16.42
2024-01-22T09:06:48.206Z,9.25
2024-01-22T09:09:15.814Z,10.95
2024-01-22T09:11:43.358Z,11.60
2024-01-22T09:14:10.936Z,10.52
2024-01-22T09:16:38.492Z,13.35
2024-01-22T09:19:08.181Z,18.17
2024-01-22T09:21:36.318Z,14.82
2024-01-22T09:24:04.100Z,11.38
2024-01-22T09:26:31.652Z,11.73
2024-01-22T09:28:59.154Z,14.15
2024-01-22T09:31:26.756Z,13.10
2024-01-22T09:33:55.268Z,13.20
2024-01-22T09:36:23.272Z,11.25
2024-01-22T09:38:50.989Z,17.13
2024-01-22T09:41:19.784Z,15.48
2024-01-22T09:43:48.496Z,11.18
2024-01-22T09:46:16.128Z,8.30
2024-01-22T09:48:43.910Z,17.75
2024-01-22T09:51:11.593Z,16.15
2024-01-22T09:53:46.636Z,15.38
2024-01-22T09:56:21.129Z,9.20
2024-01-22T09:58:55.560Z,11.20
2024-01-22T10:01:23.966Z,13.70
2024-01-22T10:03:52.677Z,8.45
2024-01-22T10:06:22.916Z,9.98
2024-01-22T10:08:58.757Z,13.45
2024-01-22T10:11:26.842Z,10.60
2024-01-22T10:13:56.084Z,15.20
2024-01-22T10:16:28.693Z,9.32
2024-01-22T10:19:05.200Z,13.50
2024-01-22T10:21:34.915Z,11.75
2024-01-22T10:24:08.747Z,10.95
2024-01-22T10:26:37.523Z,9.52
2024-01-22T10:29:23.788Z,11.57
2024-01-22T10:31:55.134Z,12.48
2024-01-22T10:34:25.667Z,16.13
2024-01-22T10:37:11.505Z,8.13
2024-01-22T10:39:42.464Z,14.35
2024-01-22T10:42:15.749Z,11.80
2024-01-22T10:44:47.267Z,10.55
2024-01-22T10:47:16.501Z,16.05
2024-01-22T10:49:48.445Z,15.38
2024-01-22T10:52:20.422Z,9.00
2024-01-22T10:54:48.233Z,11.88
2024-01-22T10:57:36.362Z,20.33
2024-01-22T11:00:07.903Z,19.30
2024-01-22T11:02:40.699Z,14.10
2024-01-22T11:05:34.696Z,13.43
2024-01-22T11:08:06.456Z,30.83
2024-01-22T11:10:34.232Z,17.67
2024-01-22T11:13:02.431Z,18.83
2024-01-22T11:15:30.064Z,15.30
2024-01-22T11:17:58.168Z,18.70
2024-01-22T11:20:26.191Z,13.75
2024-01-22T11:23:14.612Z,21.20
2024-01-22T11:25:42.307Z,18.90
2024-01-22T11:28:11.625Z,21.90
2024-01-22T11:30:42.691Z,25.70
2024-01-22T11:33:22.719Z,25.65
2024-01-22T11:35:50.933Z,27.67
2024-01-22T11:38:44.062Z,29.58
2024-01-22T11:41:11.536Z,27.80
2024-01-22T11:43:39.189Z,27.25
2024-01-22T11:46:16.668Z,28.23
2024-01-22T11:48:44.720Z,23.80
2024-01-22T11:51:14.103Z,26.17
2024-01-22T11:53:55.351Z,23.23
2024-01-22T11:56:24.143Z,32.05
2024-01-22T11:59:03.658Z,30.05
2024-01-22T12:01:31.710Z,28.65
2024-01-22T12:04:17.582Z,28.98
2024-01-22T12:06:52.333Z,30.65
2024-01-22T12:09:21.218Z,26.83
2024-01-22T12:11:54.755Z,34.47
2024-01-22T12:14:22.746Z,32.40
2024-01-22T12:17:06.003Z,32.97
2024-01-22T12:19:33.778Z,32.30
2024-01-22T12:22:01.418Z,31.08
2024-01-22T12:24:29.005Z,29.00
2024-01-22T12:26:56.625Z,31.90
2024-01-22T12:29:26.486Z,25.60
2024-01-22T12:32:12.656Z,21.42
2024-01-22T12:34:40.566Z,24.23
2024-01-22T12:37:19.329Z,30.25
2024-01-22T12:39:48.239Z,31.50
2024-01-22T12:42:20.138Z,21.65
2024-01-22T12:45:01.839Z,20.80
2024-01-22T12:47:33.094Z,21.67
2024-01-22T12:50:03.939Z,23.70
2024-01-22T12:52:32.342Z,23.65
2024-01-22T12:55:02.422Z,30.85
2024-01-22T12:57:30.662Z,21.30
2024-01-22T12:59:58.514Z,24.67
2024-01-22T13:02:26.342Z,24.55
2024-01-22T13:04:53.881Z,22.05
2024-01-22T13:07:21.513Z,20.92
2024-01-22T13:09:49.139Z,20.08
2024-01-22T13:12:16.825Z,23.13
2024-01-22T13:14:47.122Z,19.77
2024-01-22T13:17:14.978Z,19.65
2024-01-22T13:19:43.179Z,25.00
2024-01-22T13:22:11.171Z,19.55
2024-01-22T13:24:38.799Z,20.45
2024-01-22T13:27:07.402Z,19.33
2024-01-22T13:29:36.769Z,16.50
2024-01-22T13:32:05.531Z,17.15
2024-01-22T13:34:33.715Z,21.60
2024-01-22T13:37:01.835Z,19.83
2024-01-22T13:39:29.591Z,17.38
2024-01-22T13:41:57.267Z,17.77
2024-01-22T13:44:24.898Z,17.83
2024-01-22T13:46:52.479Z,16.85
2024-01-22T13:49:20.245Z,25.50
2024-01-22T13:51:47.872Z,17.67
2024-01-22T13:54:15.508Z,15.75
2024-01-22T13:56:43.014Z,13.32
2024-01-22T13:59:12.548Z,23.67
2024-01-22T14:01:40.133Z,22.95
2024-01-22T14:04:07.851Z,18.80
2024-01-22T14:06:35.514Z,23.92
2024-01-22T14:09:03.579Z,21.33
2024-01-22T14:11:31.266Z,20.67
2024-01-22T14:13:58.838Z,17.23
2024-01-22T14:16:26.730Z,21.30
2024-01-22T14:18:54.627Z,32.65
2024-01-22T14:21:22.815Z,17.30
2024-01-22T14:23:50.888Z,17.75
2024-01-22T14:26:18.520Z,21.58
2024-01-22T14:28:46.168Z,17.35
2024-01-22T14:31:14.589Z,18.48
2024-01-22T14:33:42.953Z,14.63
2024-01-22T14:36:10.945Z,18.13
2024-01-22T14:38:41.470Z,16.33
2024-01-22T14:41:14.105Z,21.25
2024-01-22T14:43:41.862Z,14.65
2024-01-22T14:46:09.677Z,17.30
2024-01-22T14:48:37.809Z,17.10
2024-01-22T14:51:05.902Z,25.25
2024-01-22T14:53:33.795Z,19.08
2024-01-22T14:56:01.987Z,19.38
2024-01-22T14:58:29.601Z,22.17
2024-01-22T15:00:57.149Z,19.98
2024-01-22T15:03:26.222Z,22.35
2024-01-22T15:05:54.500Z,18.27
2024-01-22T15:08:22.866Z,18.67
2024-01-22T15:10:50.520Z,17.63
2024-01-22T15:13:20.244Z,18.17
2024-01-22T15:15:47.741Z,21.70
2024-01-22T15:18:15.802Z,22.52
2024-01-22T15:20:44.535Z,22.38
2024-01-22T15:23:12.385Z,21.15
2024-01-22T15:25:40.226Z,19.73
2024-01-22T15:28:08.207Z,19.65
2024-01-22T15:30:35.836Z,26.52
2024-01-22T15:33:04.704Z,25.80
2024-01-22T15:35:33.140Z,17.83
2024-01-22T15:38:01.025Z,27.08
2024-01-22T15:40:28.554Z,19.67
2024-01-22T15:42:56.345Z,24.17
2024-01-22T15:45:24.015Z,30.08
2024-01-22T15:47:53.456Z,25.88
2024-01-22T15:50:24.507Z,21.13
2024-01-22T15:52:52.083Z,21.13
2024-01-22T15:55:19.664Z,23.52
2024-01-22T15:57:47.168Z,19.95
2024-01-22T16:00:15.496Z,22.42
2024-01-22T16:02:43.193Z,23.65
2024-01-22T16:05:11.270Z,13.90
2024-01-22T16:07:40.421Z,18.70
2024-01-22T16:10:09.490Z,20.30
2024-01-22T16:12:37.200Z,24.90
2024-01-22T16:15:05.794Z,25.17
2024-01-22T16:17:33.618Z,20.77
2024-01-22T16:20:01.429Z,21.98
2024-01-22T16:22:29.343Z,21.00
2024-01-22T16:24:58.817Z,22.20
2024-01-22T16:27:26.541Z,15.75
2024-01-22T16:29:54.897Z,20.30
2024-01-22T16:32:22.735Z,18.27
2024-01-22T16:34:50.711Z,21.33
2024-01-22T16:37:19.687Z,24.23
2024-01-22T16:39:48.611Z,26.05
2024-01-22T16:42:16.400Z,24.30
2024-01-22T16:44:43.916Z,19.50
2024-01-22T16:47:11.584Z,23.40
2024-01-22T16:49:39.263Z,19.30
2024-01-22T16:52:09.085Z,24.92
2024-01-22T16:54:36.676Z,27.08
2024-01-22T16:57:05.940Z,17.65
2024-01-22T16:59:33.882Z,21.08
2024-01-22T17:02:01.464Z,26.92
2024-01-22T17:04:29.032Z,18.05
2024-01-22T17:07:07.024Z,19.73
2024-01-22T17:09:35.512Z,20.08
2024-01-22T17:12:06.205Z,23.55
2024-01-22T17:14:34.379Z,21.52
2024-01-22T17:17:02.234Z,17.42
2024-01-22T17:19:31.448Z,20.80
2024-01-22T17:21:59.229Z,17.98
2024-01-22T17:24:26.864Z,18.98
2024-01-22T17:26:54.570Z,21.23
2024-01-22T17:29:22.974Z,24.08
2024-01-22T17:31:50.761Z,16.38
2024-01-22T17:34:18.693Z,21.20
2024-01-22T17:36:46.605Z,15.30
2024-01-22T17:39:18.319Z,19.52
2024-01-22T17:41:45.979Z,23.20
2024-01-22T17:44:14.831Z,19.17
2024-01-22T17:46:44.740Z,20.95
2024-01-22T17:49:12.472Z,14.27
2024-01-22T17:51:40.175Z,13.10
2024-01-22T17:54:09.229Z,23.05
2024-01-22T17:56:40.660Z,23.70
2024-01-22T17:59:08.358Z,16.17
2024-01-22T18:01:36.683Z,18.40
2024-01-22T18:04:04.460Z,18.48
2024-01-22T18:06:32.113Z,20.70
2024-01-22T18:09:00.149Z,15.98
2024-01-22T18:11:29.066Z,15.68
2024-01-22T18:13:56.579Z,16.25
2024-01-22T18:16:24.077Z,25.77
2024-01-22T18:18:51.869Z,23.65
2024-01-22T18:21:19.584Z,18.92
2024-01-22T18:23:47.162Z,17.20
2024-01-22T18:26:14.939Z,28.00
2024-01-22T18:28:42.490Z,20.92
2024-01-22T18:31:10.106Z,22.55
2024-01-22T18:33:40.417Z,23.33
2024-01-22T18:36:09.965Z,18.35
2024-01-22T18:38:37.629Z,16.95
2024-01-22T18:41:05.110Z,19.23
2024-01-22T18:43:32.672Z,26.30
2024-01-22T18:46:06.804Z,22.80
2024-01-22T18:48:40.935Z,25.15
2024-01-22T18:51:08.747Z,26.00
2024-01-22T18:53:36.905Z,23.85
2024-01-22T18:56:04.928Z,24.60
2024-01-22T18:58:32.683Z,27.58
2024-01-22T19:01:03.444Z,20.58
2024-01-22T19:03:31.125Z,25.42
2024-01-22T19:06:03.236Z,26.38
2024-01-22T19:10:58.322Z,24.90
2024-01-22T19:13:25.878Z,20.15
2024-01-22T19:15:53.548Z,17.15
2024-01-22T19:18:21.475Z,26.27
2024-01-22T19:20:49.360Z,22.65
2024-01-22T19:23:19.124Z,23.40
2024-01-22T19:25:47.185Z,26.27
2024-01-22T19:28:14.900Z,24.48
2024-01-22T19:30:42.404Z,22.33
2024-01-22T19:33:10.052Z,19.20
2024-01-22T19:35:37.608Z,21.83
2024-01-22T19:38:05.125Z,23.50
2024-01-22T19:40:34.558Z,17.95
2024-01-22T19:43:03.018Z,22.52
2024-01-22T19:45:30.737Z,26.40
2024-01-22T19:48:00.201Z,22.08
2024-01-22T19:50:27.913Z,24.20
2024-01-22T19:52:57.072Z,22.15
2024-01-22T19:55:24.649Z,23.80
2024-01-22T19:57:53.221Z,24.20
2024-01-22T20:00:21.186Z,31.17
2024-01-22T20:02:48.775Z,34.25
2024-01-22T20:05:16.621Z,20.33
2024-01-22T20:07:46.409Z,25.85
2024-01-22T20:10:14.150Z,30.75
2024-01-22T20:12:41.988Z,23.65
2024-01-22T20:15:10.166Z,24.40
2024-01-22T20:17:37.689Z,27.75
2024-01-22T20:20:06.902Z,21.77
2024-01-22T20:22:34.499Z,27.75
2024-01-22T20:25:02.219Z,21.13
2024-01-22T20:27:29.950Z,22.67
2024-01-22T20:29:57.519Z,21.50
2024-01-22T20:32:25.141Z,27.55
2024-01-22T20:34:53.334Z,18.65
2024-01-22T20:37:20.912Z,26.08
2024-01-22T20:39:48.419Z,24.98
2024-01-22T20:42:16.104Z,32.30
2024-01-22T20:44:43.663Z,23.48
2024-01-22T20:47:12.050Z,21.92
2024-01-22T20:49:39.668Z,26.13
2024-01-22T20:52:07.399Z,22.10
2024-01-22T20:54:35.267Z,19.27
2024-01-22T20:57:04.375Z,22.17
2024-01-22T20:59:33.618Z,26.17
2024-01-22T21:02:01.183Z,24.20
2024-01-22T21:04:28.870Z,20.95
2024-01-22T21:06:56.919Z,25.67
2024-01-22T21:09:24.592Z,28.20
2024-01-22T21:11:52.420Z,20.75
2024-01-22T21:14:20.224Z,24.73
2024-01-22T21:16:47.879Z,17.45
2024-01-22T21:19:16.571Z,16.67
2024-01-22T21:21:44.724Z,19.50
2024-01-22T21:24:12.472Z,29.05
2024-01-22T21:26:40.138Z,17.08
2024-01-22T21:29:07.734Z,18.40
2024-01-22T21:31:35.764Z,18.30
2024-01-22T21:34:04.825Z,18.05
2024-01-22T21:36:32.449Z,19.98
2024-01-22T21:39:00.113Z,21.40
2024-01-22T21:41:27.764Z,23.60
2024-01-22T21:43:55.302Z,28.48
2024-01-22T21:46:23.208Z,26.50
2024-01-22T21:48:50.926Z,20.40
2024-01-22T21:51:18.639Z,26.00
2024-01-22T21:53:46.300Z,25.75
2024-01-22T21:56:15.157Z,22.15
2024-01-22T21:58:42.931Z,17.95
2024-01-22T22:01:10.723Z,25.83
2024-01-22T22:03:38.462Z,16.17
2024-01-22T22:06:06.840Z,19.95
2024-01-22T22:08:36.524Z,20.52
2024-01-22T22:11:05.148Z,23.80
2024-01-22T22:13:32.793Z,28.48
2024-01-22T22:16:01.271Z,24.73
2024-01-22T22:18:29.242Z,25.08
2024-01-22T22:20:57.206Z,19.60
2024-01-22T22:23:26.596Z,18.40
2024-01-22T22:25:54.346Z,19.73
2024-01-22T22:28:21.858Z,17.70
2024-01-22T22:30:52.458Z,28.13
2024-01-22T22:33:21.124Z,21.80
2024-01-22T22:35:48.872Z,21.63
2024-01-22T22:38:16.645Z,24.63
2024-01-22T22:40:45.054Z,19.27
2024-01-22T22:43:12.821Z,22.52
2024-01-22T22:45:40.374Z,24.65
2024-01-22T22:48:10.293Z,20.10
2024-01-22T22:50:38.414Z,21.10
2024-01-22T22:53:05.904Z,24.55
2024-01-22T22:55:33.374Z,19.40
2024-01-22T22:58:01.911Z,21.52
2024-01-22T23:00:29.651Z,16.77
2024-01-22T23:02:59.391Z,18.15
2024-01-22T23:05:27.100Z,25.40
2024-01-22T23:07:54.641Z,24.40
2024-01-22T23:10:22.187Z,22.33
2024-01-22T23:12:49.685Z,19.88
2024-01-22T23:15:18.401Z,21.02
2024-01-22T23:17:46.097Z,20.90
2024-01-22T23:20:13.682Z,20.33
2024-01-22T23:22:41.206Z,13.25
2024-01-22T23:25:09.297Z,26.17
2024-01-22T23:27:36.804Z,18.83
2024-01-22T23:30:05.349Z,22.23
2024-01-22T23:32:37.522Z,16.77
2024-01-22T23:35:05.861Z,17.67
2024-01-22T23:37:33.373Z,30.85
2024-01-22T23:40:00.895Z,19.75
2024-01-22T23:42:28.500Z,14.50
2024-01-22T23:44:56.234Z,22.55
2024-01-22T23:47:23.882Z,13.38
2024-01-22T23:49:51.830Z,25.80
2024-01-22T23:52:19.429Z,17.83
2024-01-22T23:54:46.923Z,24.33
2024-01-22T23:57:14.400Z,22.60
2024-01-22T23:59:42.803Z,22.73
